Terminal Aerodrome Forecast
Issued by NWS Sterling, VA

Home | Current Version | Previous Version | Text Only | Print | Product List | Glossary On
Versions: 1 2 3 4 5 6 7 8 9 10 11 12 13 14 15 16 17 18 19 20 21 22
000
FTUS41 KLWX 272340
TAFIAD
TAF
KIAD 272340Z 2800/2906 17004KT P6SM -SHRA OVC050
     FM280200 17005KT P6SM OVC040
     FM280700 VRB03KT 5SM BR BKN030
     FM281200 18003KT P6SM BKN035
     FM281700 25004KT P6SM SCT040
     FM282200 21006KT P6SM BKN050=

USA.gov is the U.S. government's official web portal to all federal, state and local government web resources and services.